Time;durP1;ratioP1;P1;durP2;ratioP2;P2;SDS_P1;SDS_P2;PMS_P1;PMS_P2;Temp;Humidity;BMP_temperature;BMP_pressure;BME280_temperature;BME280_humidity;BME280_pressure;Samples;Min_cycle;Max_cycle;Signal;HPM_P1;HPM_P2
2023/06/27 00:00:00;;;;;;;18.92;12.07;;;15.40;99.90;;;;;;21035132;28;20075;-51
2023/06/27 00:10:02;;;;;;;16.60;11.05;;;15.30;99.90;;;;;;21051358;28;20110;-52
2023/06/27 00:20:05;;;;;;;15.13;10.88;;;15.20;99.90;;;;;;21037377;28;20067;-51
2023/06/27 00:30:07;;;;;;;14.38;10.70;;;15.10;99.90;;;;;;21044824;28;20072;-46
2023/06/27 00:40:09;;;;;;;19.80;10.65;;;15.10;99.90;;;;;;21046671;28;20075;-52
2023/06/27 00:50:12;;;;;;;17.23;10.93;;;15.00;99.90;;;;;;21041720;28;20075;-55
2023/06/27 01:00:17;;;;;;;14.55;10.63;;;15.00;99.90;;;;;;21033730;28;20113;-48
2023/06/27 01:10:37;;;;;;;12.85;9.88;;;15.10;99.90;;;;;;21036396;28;20490;-50
2023/06/27 01:20:45;;;;;;;16.73;11.07;;;15.10;99.90;;;;;;21033619;28;20429;-52
2023/06/27 01:30:46;;;;;;;14.30;10.23;;;15.30;99.90;;;;;;21033579;28;20067;-54
2023/06/27 01:40:52;;;;;;;17.35;9.88;;;15.10;99.90;;;;;;21030699;28;20143;-49
2023/06/27 01:50:54;;;;;;;14.80;9.63;;;14.90;99.90;;;;;;21032164;28;20126;-47
2023/06/27 02:00:56;;;;;;;14.27;9.88;;;14.90;99.90;;;;;;21014407;28;20458;-52
2023/06/27 02:10:57;;;;;;;14.65;9.57;;;14.90;99.90;;;;;;21039097;28;20070;-52
2023/06/27 02:20:59;;;;;;;14.82;10.00;;;14.70;99.90;;;;;;21026039;28;20489;-50
2023/06/27 02:31:02;;;;;;;15.35;10.15;;;14.50;99.90;;;;;;21045647;28;20071;-52
2023/06/27 02:41:04;;;;;;;19.23;9.75;;;14.60;99.90;;;;;;21040877;28;20076;-50
2023/06/27 02:51:08;;;;;;;15.15;10.63;;;14.50;99.90;;;;;;21046739;28;20119;-47
2023/06/27 03:01:10;;;;;;;13.75;9.57;;;14.40;99.90;;;;;;21032962;28;20188;-46
2023/06/27 03:11:15;;;;;;;14.57;9.00;;;14.40;99.90;;;;;;20984680;28;20063;-53
2023/06/27 03:21:17;;;;;;;14.70;9.88;;;14.30;99.90;;;;;;21015305;28;20056;-47
2023/06/27 03:31:19;;;;;;;15.27;10.15;;;14.40;99.90;;;;;;21037623;28;20128;-48
2023/06/27 03:41:21;;;;;;;13.40;9.32;;;14.40;99.90;;;;;;21037887;28;20094;-47
2023/06/27 03:51:23;;;;;;;12.93;9.65;;;14.40;99.90;;;;;;21023820;28;20075;-49
2023/06/27 04:01:25;;;;;;;15.40;10.00;;;14.30;99.90;;;;;;21009710;28;20119;-49
2023/06/27 04:11:26;;;;;;;12.30;9.38;;;14.20;99.90;;;;;;21013400;28;20488;-52
2023/06/27 04:21:30;;;;;;;14.05;9.27;;;14.70;99.90;;;;;;21026409;28;20241;-53
2023/06/27 04:31:32;;;;;;;16.23;9.60;;;14.70;99.90;;;;;;21019282;28;20086;-49
2023/06/27 04:41:34;;;;;;;12.48;9.90;;;14.70;99.90;;;;;;21043935;28;20144;-47
2023/06/27 04:51:36;;;;;;;12.18;9.63;;;15.00;99.90;;;;;;21009764;28;20129;-52
2023/06/27 05:01:37;;;;;;;14.45;9.55;;;15.20;99.90;;;;;;21021248;28;20632;-51
2023/06/27 05:11:39;;;;;;;14.35;9.20;;;15.40;99.90;;;;;;21033735;28;20150;-55
2023/06/27 05:21:40;;;;;;;11.65;8.10;;;15.70;99.90;;;;;;21005248;28;20063;-54
2023/06/27 05:31:43;;;;;;;11.05;7.95;;;16.00;99.90;;;;;;21017792;28;20099;-51
2023/06/27 05:41:44;;;;;;;9.73;7.55;;;16.40;99.90;;;;;;21038680;28;20174;-51
2023/06/27 05:51:46;;;;;;;8.77;7.00;;;16.70;99.90;;;;;;21032249;28;20090;-49
2023/06/27 06:01:47;;;;;;;8.40;6.90;;;17.10;99.90;;;;;;21031033;28;20067;-54
2023/06/27 06:11:49;;;;;;;9.68;6.70;;;17.70;99.90;;;;;;21011453;28;20117;-49
2023/06/27 06:21:50;;;;;;;8.38;6.53;;;19.20;99.90;;;;;;21026456;28;20645;-49
2023/06/27 06:31:52;;;;;;;7.30;6.07;;;21.50;99.90;;;;;;21028415;28;20139;-47
2023/06/27 06:41:55;;;;;;;7.68;5.75;;;21.80;99.90;;;;;;21021864;28;20076;-52
2023/06/27 06:51:57;;;;;;;5.65;5.00;;;23.30;99.90;;;;;;21022897;28;20063;-55
2023/06/27 07:01:58;;;;;;;6.22;5.22;;;26.30;95.60;;;;;;21020151;28;20072;-54
2023/06/27 07:12:00;;;;;;;8.90;5.15;;;27.10;94.20;;;;;;21026937;28;20132;-52
2023/06/27 07:22:01;;;;;;;10.60;5.38;;;26.60;92.60;;;;;;21039012;28;20128;-52
2023/06/27 07:32:03;;;;;;;6.57;5.88;;;25.50;93.00;;;;;;21029794;28;20072;-54
2023/06/27 07:42:05;;;;;;;6.88;6.18;;;25.90;92.50;;;;;;21024178;28;20079;-49
2023/06/27 07:52:08;;;;;;;6.93;5.40;;;27.60;91.00;;;;;;21043901;28;20405;-55
2023/06/27 08:02:09;;;;;;;7.65;6.10;;;28.40;90.80;;;;;;21046974;28;20143;-56
2023/06/27 08:12:11;;;;;;;10.63;6.32;;;28.80;90.10;;;;;;21037827;28;20094;-56
2023/06/27 08:22:13;;;;;;;10.57;8.20;;;29.20;87.70;;;;;;21045139;28;20056;-56
2023/06/27 08:32:14;;;;;;;7.25;5.38;;;29.30;84.10;;;;;;21034989;28;20072;-48
2023/06/27 08:42:16;;;;;;;7.72;6.60;;;29.40;87.40;;;;;;21018217;28;20075;-55
2023/06/27 08:52:19;;;;;;;6.75;5.90;;;29.40;88.60;;;;;;21043000;28;20561;-56
2023/06/27 09:02:21;;;;;;;7.85;7.00;;;29.60;87.90;;;;;;21034897;28;20090;-53
2023/06/27 09:12:24;;;;;;;7.50;6.70;;;29.90;86.60;;;;;;20997217;28;20474;-56
2023/06/27 09:22:26;;;;;;;8.40;6.95;;;30.10;88.60;;;;;;21035361;28;20144;-56
2023/06/27 09:32:28;;;;;;;8.60;7.53;;;30.10;88.00;;;;;;21031438;28;20553;-51
2023/06/27 09:42:29;;;;;;;11.85;8.63;;;30.20;87.70;;;;;;21000383;28;20125;-56
2023/06/27 09:52:31;;;;;;;11.90;8.13;;;30.40;85.00;;;;;;21041130;28;20129;-55
2023/06/27 10:02:33;;;;;;;8.43;7.47;;;30.60;85.70;;;;;;21029214;28;20535;-56
2023/06/27 10:12:34;;;;;;;11.38;7.78;;;30.60;84.80;;;;;;21031113;28;20596;-55
2023/06/27 10:22:43;;;;;;;8.00;7.20;;;30.80;86.10;;;;;;21016364;28;20115;-56
2023/06/27 10:32:45;;;;;;;10.13;6.68;;;29.80;87.80;;;;;;21046662;28;20580;-57
2023/06/27 10:42:52;;;;;;;10.95;8.15;;;30.20;86.90;;;;;;21013810;28;20075;-56
2023/06/27 10:53:01;;;;;;;12.45;8.10;;;30.60;89.40;;;;;;21039342;28;20098;-55
2023/06/27 11:03:04;;;;;;;10.93;9.18;;;30.60;88.20;;;;;;21016278;28;20084;-55
2023/06/27 11:13:21;;;;;;;15.05;9.77;;;30.70;89.90;;;;;;21010732;28;20123;-55
2023/06/27 11:23:24;;;;;;;17.30;10.48;;;30.70;88.50;;;;;;21043187;28;20076;-54
2023/06/27 11:33:26;;;;;;;11.85;8.55;;;30.90;88.00;;;;;;21057791;28;20195;-55
2023/06/27 11:43:28;;;;;;;15.88;12.00;;;31.20;88.20;;;;;;21034033;28;20729;-54
2023/06/27 11:53:30;;;;;;;11.55;10.23;;;30.80;87.80;;;;;;21046988;28;20465;-54
2023/06/27 12:03:33;;;;;;;14.90;9.77;;;30.80;89.00;;;;;;21035411;28;20433;-55
2023/06/27 12:13:39;;;;;;;15.50;9.27;;;30.80;86.40;;;;;;21027453;28;20060;-53
2023/06/27 12:23:40;;;;;;;;;;;30.70;87.00;;;;;;21032817;28;20483;-51
2023/06/27 12:33:42;;;;;;;11.27;9.07;;;29.10;90.30;;;;;;21035380;28;20039;-55
2023/06/27 12:43:45;;;;;;;10.38;8.68;;;29.60;90.50;;;;;;21043751;28;20101;-52
2023/06/27 12:53:46;;;;;;;9.50;8.38;;;30.30;89.60;;;;;;21042647;28;20144;-54
2023/06/27 13:03:48;;;;;;;14.65;8.93;;;30.30;89.10;;;;;;21021969;28;20145;-51
2023/06/27 13:13:49;;;;;;;11.32;9.07;;;27.60;90.30;;;;;;21040867;28;20067;-51
2023/06/27 13:23:52;;;;;;;13.20;9.13;;;25.40;92.70;;;;;;21022454;28;20139;-54
2023/06/27 13:33:53;;;;;;;12.00;9.18;;;26.00;94.50;;;;;;21051646;28;20125;-54
2023/06/27 13:43:55;;;;;;;10.77;8.35;;;27.60;93.40;;;;;;21002254;28;20088;-55
2023/06/27 13:53:57;;;;;;;10.95;9.50;;;29.30;90.70;;;;;;21021761;28;20072;-56
2023/06/27 14:03:59;;;;;;;12.20;11.07;;;30.10;89.90;;;;;;21019464;28;20142;-55
2023/06/27 14:14:02;;;;;;;20.85;10.40;;;30.20;87.50;;;;;;21020119;28;20093;-52
2023/06/27 14:24:07;;;;;;;14.90;9.93;;;28.40;89.80;;;;;;21016952;28;20459;-53
2023/06/27 14:34:08;;;;;;;11.57;10.35;;;26.60;91.80;;;;;;21010563;28;20118;-55
2023/06/27 14:44:11;;;;;;;13.23;10.60;;;27.60;91.40;;;;;;21019746;28;20525;-49
2023/06/27 14:54:13;;;;;;;17.60;11.00;;;26.70;92.40;;;;;;21033611;28;20072;-54
2023/06/27 15:04:15;;;;;;;12.57;9.70;;;25.30;93.30;;;;;;21033108;28;20212;-54
2023/06/27 15:14:16;;;;;;;12.80;11.45;;;25.90;93.60;;;;;;21011920;28;20071;-54
2023/06/27 15:24:18;;;;;;;13.65;11.63;;;25.40;93.80;;;;;;21010077;28;20495;-53
2023/06/27 15:34:20;;;;;;;17.58;11.45;;;24.40;95.20;;;;;;21026752;28;20550;-51
2023/06/27 15:44:21;;;;;;;16.00;10.55;;;24.50;95.60;;;;;;21008054;28;20133;-52
2023/06/27 15:54:23;;;;;;;14.52;10.82;;;24.70;95.40;;;;;;21020435;28;20519;-52
2023/06/27 16:04:26;;;;;;;13.10;10.88;;;24.60;95.40;;;;;;21011777;28;20125;-51
2023/06/27 16:14:28;;;;;;;14.88;12.05;;;24.30;95.30;;;;;;21012087;28;20147;-54
2023/06/27 16:24:29;;;;;;;14.57;11.45;;;24.10;95.40;;;;;;21034058;28;20530;-51
2023/06/27 16:34:31;;;;;;;14.30;11.95;;;24.10;96.40;;;;;;21023047;28;20376;-50
2023/06/27 16:44:32;;;;;;;16.52;11.10;;;23.90;96.90;;;;;;21034643;28;20474;-55
2023/06/27 16:54:34;;;;;;;16.60;10.93;;;23.50;97.00;;;;;;20999432;28;20123;-53
2023/06/27 17:04:36;;;;;;;15.35;11.88;;;23.10;97.50;;;;;;21023011;28;20075;-53
2023/06/27 17:14:37;;;;;;;19.33;11.43;;;22.60;98.30;;;;;;21042920;28;20105;-52
2023/06/27 17:24:39;;;;;;;32.55;21.45;;;21.70;99.90;;;;;;21043660;28;20064;-48
2023/06/27 17:34:41;;;;;;;16.00;11.60;;;20.30;99.90;;;;;;21022150;28;20162;-53
2023/06/27 17:44:42;;;;;;;27.63;15.63;;;17.50;99.90;;;;;;20985793;28;20079;-51
2023/06/27 17:54:44;;;;;;;25.83;14.15;;;14.50;99.90;;;;;;21014425;28;20102;-49
2023/06/27 18:04:46;;;;;;;40.30;19.17;;;13.40;99.90;;;;;;20992725;28;20561;-51
2023/06/27 18:14:47;;;;;;;43.28;22.88;;;13.10;99.90;;;;;;21012950;28;20115;-51
2023/06/27 18:24:49;;;;;;;43.50;28.52;;;13.10;99.90;;;;;;21019417;28;20063;-55
2023/06/27 18:34:51;;;;;;;37.42;26.17;;;12.80;99.90;;;;;;21014715;28;20067;-51
2023/06/27 18:44:56;;;;;;;40.05;28.77;;;13.10;99.90;;;;;;21015761;28;20155;-52
2023/06/27 18:54:57;;;;;;;32.17;23.45;;;13.50;99.90;;;;;;21000224;28;20123;-56
2023/06/27 19:05:01;;;;;;;42.28;27.40;;;13.60;99.90;;;;;;21002657;28;20076;-53
2023/06/27 19:15:03;;;;;;;40.45;27.98;;;13.70;99.90;;;;;;20990906;28;20067;-51
2023/06/27 19:25:06;;;;;;;41.53;29.10;;;13.80;99.90;;;;;;21005204;28;20072;-50
2023/06/27 19:35:10;;;;;;;45.10;30.83;;;13.90;99.90;;;;;;20996254;28;20068;-51
2023/06/27 19:45:11;;;;;;;77.28;52.28;;;13.90;99.90;;;;;;21004531;28;20088;-50
2023/06/27 19:55:13;;;;;;;80.70;55.80;;;14.20;99.90;;;;;;21030603;28;20068;-55
2023/06/27 20:05:15;;;;;;;72.50;50.03;;;14.50;99.90;;;;;;21026998;28;20129;-49
2023/06/27 20:15:17;;;;;;;82.75;55.78;;;14.80;99.90;;;;;;21036894;28;20072;-51
2023/06/27 20:25:18;;;;;;;82.90;55.30;;;15.00;99.90;;;;;;21037873;28;20063;-52
2023/06/27 20:35:21;;;;;;;95.78;65.00;;;15.10;99.90;;;;;;21030448;28;20079;-47
2023/06/27 20:45:23;;;;;;;84.60;58.00;;;15.10;99.90;;;;;;21005223;28;20129;-50
2023/06/27 20:55:25;;;;;;;84.63;60.90;;;15.50;99.90;;;;;;21006582;28;20086;-55
2023/06/27 21:05:26;;;;;;;70.47;49.78;;;15.70;99.90;;;;;;21016655;28;20073;-47
2023/06/27 21:15:28;;;;;;;55.50;41.47;;;15.90;99.90;;;;;;21012123;28;20071;-51
2023/06/27 21:25:30;;;;;;;55.42;39.42;;;15.90;99.90;;;;;;21022300;28;20063;-51
2023/06/27 21:35:31;;;;;;;79.50;51.88;;;15.70;99.90;;;;;;21037648;28;20549;-51
2023/06/27 21:45:33;;;;;;;52.53;42.15;;;15.70;99.90;;;;;;21024258;28;20095;-52
2023/06/27 21:55:34;;;;;;;41.05;33.53;;;15.70;99.90;;;;;;21028850;28;20076;-53
2023/06/27 22:05:36;;;;;;;36.85;28.20;;;15.80;99.90;;;;;;21042121;28;20269;-54
2023/06/27 22:15:38;;;;;;;36.85;30.25;;;15.90;99.90;;;;;;21009707;28;20075;-50
2023/06/27 22:25:39;;;;;;;45.45;33.70;;;15.90;99.90;;;;;;20983465;28;20114;-49
2023/06/27 22:35:41;;;;;;;51.13;36.03;;;15.70;99.90;;;;;;21009122;28;20064;-44
2023/06/27 22:45:42;;;;;;;65.85;44.70;;;15.60;99.90;;;;;;21005657;28;20105;-52
2023/06/27 22:55:44;;;;;;;64.10;44.40;;;15.50;99.90;;;;;;21010583;28;20071;-51
2023/06/27 23:05:48;;;;;;;65.75;43.80;;;15.50;99.90;;;;;;21001066;28;20513;-49
2023/06/27 23:15:52;;;;;;;65.05;45.88;;;15.50;99.90;;;;;;20996977;28;20185;-51
2023/06/27 23:25:58;;;;;;;81.47;50.60;;;15.50;99.90;;;;;;21056701;28;20067;-48
2023/06/27 23:36:00;;;;;;;81.30;53.47;;;15.60;99.90;;;;;;21054539;28;20066;-46
2023/06/27 23:46:01;;;;;;;53.28;38.78;;;15.60;99.90;;;;;;21045800;28;20488;-53
2023/06/27 23:56:03;;;;;;;48.38;35.83;;;15.60;99.90;;;;;;21009205;28;20068;-51
